Time;durP1;ratioP1;P1;durP2;ratioP2;P2;SDS_P1;SDS_P2;PMS_P1;PMS_P2;Temp;Humidity;BMP_temperature;BMP_pressure;BME280_temperature;BME280_humidity;BME280_pressure;Samples;Min_cycle;Max_cycle;Signal;HPM_P1;HPM_P2
2023/08/08 00:01:58;;;;;;;3.25;1.42;;;;;;;16.04;43.20;101112.41;5071581;28;20063;-81
2023/08/08 00:04:27;;;;;;;3.95;1.70;;;;;;;16.03;43.32;101116.19;5076510;28;20044;-82
2023/08/08 00:06:55;;;;;;;2.65;1.50;;;;;;;16.03;43.29;101112.56;5069035;28;20040;-82
2023/08/08 00:09:27;;;;;;;2.53;1.42;;;;;;;16.03;43.40;101121.72;5066871;28;20036;-83
2023/08/08 00:11:56;;;;;;;;;;;;;;;15.74;44.54;101115.69;5050340;28;20598;-81
2023/08/08 00:14:25;;;;;;;3.00;1.60;;;;;;;15.97;43.81;101107.72;5058034;28;20367;-81
2023/08/08 00:16:53;;;;;;;2.63;1.67;;;;;;;15.97;43.42;101096.66;5055471;28;20040;-82
2023/08/08 00:19:21;;;;;;;3.63;1.73;;;;;;;15.99;43.34;101095.47;5056450;28;20048;-81
2023/08/08 00:21:49;;;;;;;3.45;1.48;;;;;;;15.96;43.18;101090.28;5055392;28;20146;-81
2023/08/08 00:24:17;;;;;;;3.08;1.40;;;;;;;15.96;43.22;101092.16;5051112;28;20078;-81
2023/08/08 00:26:46;;;;;;;2.70;1.20;;;;;;;15.95;43.66;101093.19;5051986;28;20408;-82
2023/08/08 00:29:14;;;;;;;2.90;1.38;;;;;;;15.92;43.07;101088.03;5055019;28;20519;-81
2023/08/08 00:31:42;;;;;;;2.20;1.25;;;;;;;15.91;43.77;101097.31;5068395;28;20519;-80
2023/08/08 00:34:10;;;;;;;3.28;1.40;;;;;;;15.89;43.35;101097.47;5068526;28;20387;-82
2023/08/08 00:36:39;;;;;;;4.63;1.85;;;;;;;15.85;43.10;101093.31;5047008;28;20125;-83
2023/08/08 00:39:07;;;;;;;3.53;1.60;;;;;;;15.82;42.92;101094.50;5055506;28;20048;-83
2023/08/08 00:41:35;;;;;;;2.35;1.40;;;;;;;15.82;43.36;101096.41;5066653;28;20037;-82
2023/08/08 00:44:05;;;;;;;2.35;1.45;;;;;;;15.82;43.18;101091.75;5042460;28;20037;-81
2023/08/08 00:46:33;;;;;;;2.92;1.50;;;;;;;15.78;43.14;101090.34;5064120;28;20052;-81
2023/08/08 00:49:01;;;;;;;2.83;1.30;;;;;;;15.77;43.15;101084.97;5054507;28;20040;-81
2023/08/08 00:51:29;;;;;;;2.50;1.40;;;;;;;15.75;43.46;101087.06;5058904;28;20063;-81
2023/08/08 00:53:57;;;;;;;3.40;1.30;;;;;;;15.72;42.99;101085.47;5053121;28;20048;-81
2023/08/08 00:56:26;;;;;;;3.53;1.38;;;;;;;15.69;43.69;101084.91;5056366;28;20055;-82
2023/08/08 00:58:55;;;;;;;1.80;1.10;;;;;;;15.67;43.09;101085.06;5045739;28;20056;-81
2023/08/08 01:01:24;;;;;;;2.67;1.30;;;;;;;15.67;43.46;101087.00;5061207;28;20503;-81
2023/08/08 01:03:53;;;;;;;2.95;1.50;;;;;;;15.65;43.28;101094.56;5054610;28;20041;-81
2023/08/08 01:06:28;;;;;;;3.05;1.50;;;;;;;15.66;43.70;101096.31;5053683;28;20049;-81
2023/08/08 01:09:01;;;;;;;2.65;1.40;;;;;;;15.64;43.57;101101.09;5047676;28;20120;-81
2023/08/08 01:11:34;;;;;;;3.03;1.33;;;;;;;15.62;43.60;101098.50;5051588;28;20040;-81
2023/08/08 01:14:04;;;;;;;2.53;1.25;;;;;;;15.61;43.63;101095.91;5071393;28;20036;-82
2023/08/08 01:16:34;;;;;;;2.40;1.25;;;;;;;15.60;43.30;101092.28;5063883;28;20055;-81
2023/08/08 01:19:02;;;;;;;2.55;1.60;;;;;;;15.57;43.63;101086.22;5071875;28;20044;-83
2023/08/08 01:21:33;;;;;;;3.83;1.67;;;;;;;15.56;43.25;101087.25;5063595;28;20419;-82
2023/08/08 01:24:14;;;;;;;2.97;1.50;;;;;;;15.55;43.28;101082.75;5067260;28;20496;-83
2023/08/08 01:26:42;;;;;;;3.25;1.48;;;;;;;15.49;43.75;101082.41;5060941;28;20127;-82
2023/08/08 01:29:10;;;;;;;3.60;1.55;;;;;;;15.50;43.24;101074.97;5064931;28;20407;-83
2023/08/08 01:31:38;;;;;;;3.20;1.45;;;;;;;15.50;43.28;101080.50;5064713;28;20057;-82
2023/08/08 01:34:06;;;;;;;3.95;1.50;;;;;;;15.47;43.62;101081.69;5056029;28;20052;-81
2023/08/08 01:36:43;;;;;;;3.83;1.50;;;;;;;15.46;44.12;101077.19;5066571;28;20043;-83
2023/08/08 01:39:18;;;;;;;3.15;1.50;;;;;;;15.46;43.59;101076.31;5068836;28;20048;-82
2023/08/08 01:41:49;;;;;;;3.05;1.52;;;;;;;15.46;43.21;101076.31;5068816;28;20186;-82
2023/08/08 01:44:18;;;;;;;2.60;1.67;;;;;;;15.41;43.48;101074.06;5075840;28;20298;-82
2023/08/08 01:46:46;;;;;;;3.65;1.77;;;;;;;15.41;43.84;101068.53;5091843;28;20476;-83
2023/08/08 01:49:14;;;;;;;3.40;1.42;;;;;;;15.39;43.63;101067.81;5080950;28;20146;-83
2023/08/08 01:51:42;;;;;;;2.83;1.42;;;;;;;15.36;43.59;101059.88;5064628;28;20071;-82
2023/08/08 01:54:10;;;;;;;2.78;1.40;;;;;;;15.36;43.54;101059.00;5057589;28;20068;-82
2023/08/08 01:56:39;;;;;;;2.53;1.33;;;;;;;15.37;43.86;101066.25;5063615;28;20048;-83
2023/08/08 01:59:07;;;;;;;3.85;1.50;;;;;;;15.32;43.38;101055.69;5069751;28;20043;-82
2023/08/08 02:01:36;;;;;;;3.28;1.60;;;;;;;15.32;43.86;101063.94;5061844;28;20045;-82
2023/08/08 02:04:04;;;;;;;4.00;1.80;;;;;;;15.30;43.88;101057.72;5068680;28;20047;-82
2023/08/08 02:06:32;;;;;;;2.40;1.50;;;;;;;15.26;43.59;101047.19;5071788;28;20044;-82
2023/08/08 02:09:00;;;;;;;3.65;1.50;;;;;;;15.28;43.99;101053.38;5066382;28;20044;-83
2023/08/08 02:11:28;;;;;;;3.95;1.50;;;;;;;15.25;43.93;101046.31;5062360;28;20073;-82
2023/08/08 02:13:58;;;;;;;3.20;1.60;;;;;;;15.26;43.99;101045.28;5065096;28;20143;-84
2023/08/08 02:16:26;;;;;;;4.65;1.70;;;;;;;15.24;43.82;101046.47;5071249;28;20109;-82
2023/08/08 02:18:54;;;;;;;2.72;1.40;;;;;;;15.23;43.87;101042.84;5058961;28;20093;-82
2023/08/08 02:21:22;;;;;;;3.05;1.55;;;;;;;15.22;43.93;101041.13;5052865;28;20080;-82
2023/08/08 02:23:50;;;;;;;3.35;1.50;;;;;;;15.21;43.75;101039.38;5070836;28;20040;-82
2023/08/08 02:26:18;;;;;;;2.78;1.45;;;;;;;15.21;43.76;101041.28;5059461;28;20063;-82
2023/08/08 02:28:46;;;;;;;3.15;1.50;;;;;;;15.19;43.78;101041.44;5083846;28;20131;-82
2023/08/08 02:31:20;;;;;;;1.92;1.30;;;;;;;15.20;43.61;101034.03;5065766;28;20059;-81
2023/08/08 02:33:50;;;;;;;2.72;1.40;;;;;;;15.18;43.94;101030.59;5056023;28;20100;-82
2023/08/08 02:36:18;;;;;;;4.85;1.40;;;;;;;15.17;43.71;101031.59;5062172;28;20047;-82
2023/08/08 02:38:46;;;;;;;2.47;1.50;;;;;;;15.14;43.61;101033.66;5063742;28;20052;-82
2023/08/08 02:41:14;;;;;;;3.30;1.60;;;;;;;15.12;43.61;101029.31;5066157;28;20131;-83
2023/08/08 02:43:42;;;;;;;3.20;1.30;;;;;;;15.10;43.90;101028.59;5062294;28;20539;-82
2023/08/08 02:46:10;;;;;;;2.42;1.30;;;;;;;15.08;43.77;101026.03;5059845;28;20080;-82
2023/08/08 02:48:41;;;;;;;2.83;1.50;;;;;;;15.09;43.77;101026.91;5069648;28;20052;-82
2023/08/08 02:51:08;;;;;;;2.88;1.38;;;;;;;15.07;44.03;101023.44;5063825;28;20055;-82
2023/08/08 02:53:36;;;;;;;3.58;1.40;;;;;;;15.05;43.78;101022.72;5053610;28;20060;-82
2023/08/08 02:56:05;;;;;;;2.33;1.48;;;;;;;15.05;44.10;101019.94;5074179;28;20040;-82
2023/08/08 02:58:38;;;;;;;3.10;1.52;;;;;;;15.03;44.05;101022.88;5052251;28;20050;-82
2023/08/08 03:01:07;;;;;;;2.05;1.30;;;;;;;15.02;43.92;101021.13;5061175;28;20072;-83
2023/08/08 03:03:36;;;;;;;4.22;1.67;;;;;;;15.01;43.87;101013.88;5068477;28;20044;-82
2023/08/08 03:06:06;;;;;;;2.53;1.40;;;;;;;15.01;44.11;101015.81;5062369;28;20555;-82
2023/08/08 03:08:34;;;;;;;2.60;1.40;;;;;;;15.00;43.94;101014.94;5060510;28;20056;-83
2023/08/08 03:11:02;;;;;;;4.15;1.40;;;;;;;14.99;44.02;101013.19;5073807;28;20040;-82
2023/08/08 03:13:30;;;;;;;2.67;1.38;;;;;;;14.98;44.33;101005.94;5093526;28;20557;-82
2023/08/08 03:15:59;;;;;;;2.30;1.30;;;;;;;14.98;44.37;101007.84;5076352;28;20503;-83
2023/08/08 03:18:27;;;;;;;4.15;1.50;;;;;;;14.97;44.13;101012.47;5072050;28;20048;-82
2023/08/08 03:20:55;;;;;;;3.10;1.30;;;;;;;14.96;44.27;101005.25;5070484;28;20041;-82
2023/08/08 03:23:25;;;;;;;2.83;1.40;;;;;;;14.99;44.02;101004.94;5075207;28;20086;-83
2023/08/08 03:25:54;;;;;;;3.45;1.60;;;;;;;14.96;44.40;101004.38;5070755;28;20123;-83
2023/08/08 03:28:22;;;;;;;4.35;1.60;;;;;;;14.95;44.21;101005.38;5077722;28;20032;-83
2023/08/08 03:30:52;;;;;;;2.63;1.60;;;;;;;14.95;44.36;101008.16;5087571;28;20028;-83
2023/08/08 03:33:22;;;;;;;3.47;1.85;;;;;;;14.92;44.17;101003.84;5097380;28;20064;-82
2023/08/08 03:35:50;;;;;;;4.60;1.65;;;;;;;14.91;44.75;101002.09;5070372;28;20052;-82
2023/08/08 03:38:18;;;;;;;3.45;1.33;;;;;;;14.94;44.43;101020.19;5074500;28;20318;-82
2023/08/08 03:40:47;;;;;;;4.20;1.63;;;;;;;14.95;44.78;101009.00;5062306;28;20086;-82
2023/08/08 03:43:15;;;;;;;2.58;1.42;;;;;;;14.94;44.69;101014.69;5068158;28;20051;-83
2023/08/08 03:45:45;;;;;;;2.53;1.27;;;;;;;14.94;45.03;101017.44;5066085;28;20134;-82
2023/08/08 03:48:13;;;;;;;2.65;1.40;;;;;;;14.92;44.66;101005.72;5061748;28;20044;-82
2023/08/08 03:50:42;;;;;;;3.05;1.40;;;;;;;14.93;44.67;101021.25;5052763;28;20118;-82
2023/08/08 03:53:10;;;;;;;3.28;1.55;;;;;;;14.93;44.76;101024.00;5054511;28;20044;-82
2023/08/08 03:55:38;;;;;;;3.53;1.50;;;;;;;14.93;44.80;101015.72;5062697;28;24545;-82
2023/08/08 03:58:07;;;;;;;3.20;1.50;;;;;;;14.95;44.86;101013.66;5065348;28;20040;-82
2023/08/08 04:00:36;;;;;;;3.08;1.45;;;;;;;14.91;45.26;101006.75;5071463;28;20577;-81
2023/08/08 04:03:04;;;;;;;2.83;1.70;;;;;;;14.92;45.18;101014.00;5088471;28;20140;-82
2023/08/08 04:05:32;;;;;;;3.08;1.42;;;;;;;14.92;45.30;101014.00;5068591;28;20043;-82
2023/08/08 04:08:00;;;;;;;3.45;1.65;;;;;;;14.92;45.53;101002.97;5063316;28;20048;-82
2023/08/08 04:10:28;;;;;;;4.20;2.08;;;;;;;14.91;45.41;101018.66;5069627;28;20056;-82
2023/08/08 04:12:56;;;;;;;4.60;1.60;;;;;;;14.91;45.38;101007.63;5071183;28;20554;-82
2023/08/08 04:15:25;;;;;;;3.72;1.60;;;;;;;14.94;45.30;101009.16;5070720;28;20041;-82
2023/08/08 04:17:53;;;;;;;3.53;1.73;;;;;;;14.91;45.52;101004.88;5059123;28;20051;-81
2023/08/08 04:20:21;;;;;;;3.65;1.60;;;;;;;14.92;45.15;100997.47;5059792;28;20033;-82
2023/08/08 04:22:49;;;;;;;5.15;1.50;;;;;;;14.92;45.43;101002.97;5064557;28;20064;-82
2023/08/08 04:25:17;;;;;;;3.38;1.80;;;;;;;14.90;45.78;101005.00;5065916;28;20130;-80
2023/08/08 04:27:46;;;;;;;3.30;1.52;;;;;;;14.90;45.66;100996.75;5051348;28;20040;-82
2023/08/08 04:30:14;;;;;;;3.15;1.75;;;;;;;14.90;45.78;100994.00;5061399;28;20320;-82
2023/08/08 04:32:43;;;;;;;5.72;1.90;;;;;;;14.92;45.83;101003.84;5057168;28;20036;-83
2023/08/08 04:35:11;;;;;;;4.57;1.73;;;;;;;14.90;46.11;101003.13;5054495;28;20037;-83
2023/08/08 04:37:39;;;;;;;4.43;1.88;;;;;;;14.90;45.96;101003.13;5053774;28;20037;-82
2023/08/08 04:40:09;;;;;;;4.85;1.80;;;;;;;14.89;45.53;100998.63;5053619;28;20101;-82
2023/08/08 04:42:37;;;;;;;3.33;1.73;;;;;;;14.88;45.97;100998.78;5082454;28;20062;-82
2023/08/08 04:45:07;;;;;;;4.85;1.90;;;;;;;14.88;45.87;100996.91;5070793;28;20142;-82
2023/08/08 04:47:35;;;;;;;3.92;1.80;;;;;;;14.88;45.94;101007.06;5055340;28;20059;-82
2023/08/08 04:50:05;;;;;;;5.28;1.80;;;;;;;14.91;46.49;100995.72;5064826;28;20520;-83
2023/08/08 04:52:33;;;;;;;4.35;1.90;;;;;;;14.90;46.31;100994.00;5055574;28;20036;-82
2023/08/08 04:55:01;;;;;;;3.65;2.05;;;;;;;14.89;46.10;100992.25;5058489;28;20279;-81
2023/08/08 04:57:29;;;;;;;3.75;1.75;;;;;;;14.89;46.38;100989.50;5082998;28;20040;-83
2023/08/08 04:59:57;;;;;;;5.95;2.15;;;;;;;14.89;46.24;100984.84;5050997;28;20112;-83
2023/08/08 05:02:25;;;;;;;3.28;1.80;;;;;;;14.89;46.12;100984.84;5059464;28;20067;-83
2023/08/08 05:04:53;;;;;;;3.85;2.00;;;;;;;14.90;46.40;100982.97;5054347;28;20044;-84
2023/08/08 05:07:23;;;;;;;5.90;2.10;;;;;;;14.92;46.28;100986.44;5065305;28;20135;-84
2023/08/08 05:09:51;;;;;;;3.67;2.05;;;;;;;14.90;46.67;100981.09;5065751;28;20131;-83
2023/08/08 05:12:19;;;;;;;5.05;2.15;;;;;;;14.90;46.74;100981.09;5083026;28;20043;-82
2023/08/08 05:14:47;;;;;;;5.50;2.10;;;;;;;14.90;46.79;100988.47;5091172;28;20036;-82
2023/08/08 05:17:15;;;;;;;3.42;1.90;;;;;;;14.90;46.83;100980.22;5090710;28;20111;-81
2023/08/08 05:19:43;;;;;;;5.53;2.28;;;;;;;14.91;46.62;100985.56;5072825;28;20067;-83
2023/08/08 05:22:11;;;;;;;5.60;2.10;;;;;;;14.91;46.44;100993.84;5071483;28;20131;-83
2023/08/08 05:24:40;;;;;;;4.78;1.90;;;;;;;14.93;46.72;100991.75;5068213;28;20048;-82
2023/08/08 05:27:09;;;;;;;4.03;2.20;;;;;;;14.91;46.61;100988.31;5061699;28;20051;-82
2023/08/08 05:29:38;;;;;;;7.55;2.35;;;;;;;14.92;46.81;100987.31;5061350;28;20112;-84
2023/08/08 05:32:07;;;;;;;4.18;1.95;;;;;;;14.93;47.18;100989.00;5075433;28;20044;-83
2023/08/08 05:34:35;;;;;;;4.82;2.40;;;;;;;14.93;46.87;100993.69;5052210;28;20421;-82
2023/08/08 05:37:03;;;;;;;4.32;1.80;;;;;;;14.92;47.05;100987.31;5052705;28;20427;-82
2023/08/08 05:39:45;;;;;;;5.68;2.15;;;;;;;14.95;46.88;100988.84;5061053;28;20048;-82
2023/08/08 05:42:13;;;;;;;6.20;2.05;;;;;;;14.91;47.06;100991.09;5068931;28;20040;-82
2023/08/08 05:44:43;;;;;;;5.10;2.17;;;;;;;14.93;47.16;100991.75;5051808;28;20048;-82
2023/08/08 05:47:11;;;;;;;5.25;2.38;;;;;;;14.94;47.05;100999.00;5064016;28;20048;-83
2023/08/08 05:49:41;;;;;;;3.47;2.17;;;;;;;14.96;46.94;101001.63;5053204;28;20128;-82
2023/08/08 05:52:10;;;;;;;5.13;2.22;;;;;;;14.96;47.17;100996.97;5065788;28;20059;-82
2023/08/08 05:54:38;;;;;;;4.28;2.20;;;;;;;14.95;47.18;100995.25;5056804;28;20075;-83
2023/08/08 05:57:07;;;;;;;4.50;2.28;;;;;;;14.99;47.61;100995.78;5066031;28;20154;-83
2023/08/08 05:59:35;;;;;;;3.90;2.10;;;;;;;14.97;47.54;100992.31;5051862;28;20060;-83
2023/08/08 06:02:04;;;;;;;4.50;2.25;;;;;;;14.97;47.49;100997.84;5067794;28;20051;-82
2023/08/08 06:04:33;;;;;;;6.82;2.20;;;;;;;14.97;47.84;101004.22;5064218;28;20060;-82
2023/08/08 06:07:01;;;;;;;5.63;2.40;;;;;;;14.98;47.64;101005.94;5066252;28;20075;-82
2023/08/08 06:09:33;;;;;;;5.63;2.53;;;;;;;14.99;47.87;101007.69;5062988;28;20040;-82
2023/08/08 06:12:03;;;;;;;5.03;2.55;;;;;;;15.02;47.55;101009.22;5068098;28;20511;-82
2023/08/08 06:14:33;;;;;;;4.78;2.20;;;;;;;15.01;47.57;101008.38;5061505;28;20091;-83
2023/08/08 06:17:01;;;;;;;4.75;2.63;;;;;;;15.02;47.56;101017.50;5071850;28;20047;-82
2023/08/08 06:19:29;;;;;;;4.65;2.80;;;;;;;15.03;47.62;101017.34;5062314;28;20036;-81
2023/08/08 06:21:57;;;;;;;4.85;2.50;;;;;;;15.04;47.62;101015.47;5050449;28;20492;-82
2023/08/08 06:24:26;;;;;;;5.20;2.58;;;;;;;15.04;47.39;101016.31;5062902;28;20047;-83
2023/08/08 06:26:54;;;;;;;5.28;2.50;;;;;;;15.01;47.97;101011.13;5057143;28;20516;-82
2023/08/08 06:29:22;;;;;;;6.07;2.15;;;;;;;15.03;47.93;101016.47;5055462;28;20059;-81
2023/08/08 06:31:51;;;;;;;4.88;2.20;;;;;;;15.06;47.85;101016.19;5059320;28;20047;-82
2023/08/08 06:34:19;;;;;;;4.38;2.20;;;;;;;15.05;48.18;101011.69;5053586;28;20045;-82
2023/08/08 06:36:47;;;;;;;5.15;2.22;;;;;;;15.05;47.79;101020.81;5071683;28;20053;-82
2023/08/08 06:39:15;;;;;;;5.22;2.28;;;;;;;15.06;48.10;101022.56;5062377;28;20049;-82
2023/08/08 06:41:43;;;;;;;5.40;2.38;;;;;;;15.06;47.62;101017.03;5058141;28;20136;-82
2023/08/08 06:44:11;;;;;;;4.80;2.40;;;;;;;15.07;48.08;101020.66;5063423;28;20052;-82
2023/08/08 06:46:39;;;;;;;3.75;2.15;;;;;;;15.08;47.87;101031.53;5055243;28;20047;-82
2023/08/08 06:49:09;;;;;;;4.47;2.45;;;;;;;15.09;47.75;101027.72;5063696;28;20131;-83
2023/08/08 06:51:37;;;;;;;4.22;2.28;;;;;;;15.09;47.80;101029.66;5050465;28;20040;-83
2023/08/08 06:54:05;;;;;;;5.07;2.70;;;;;;;15.10;47.66;101025.84;5059213;28;20055;-83
2023/08/08 06:56:33;;;;;;;4.45;2.20;;;;;;;15.10;47.58;101020.31;5083443;28;20090;-82
2023/08/08 06:59:01;;;;;;;5.50;2.30;;;;;;;15.12;48.04;101018.28;5082342;28;20055;-83
2023/08/08 07:01:29;;;;;;;4.25;2.35;;;;;;;15.12;48.15;101016.41;5074978;28;20036;-82
2023/08/08 07:03:58;;;;;;;5.35;2.35;;;;;;;15.12;47.70;101018.28;5082568;28;20118;-83
2023/08/08 07:06:27;;;;;;;5.38;2.50;;;;;;;15.16;47.94;101016.94;5069931;28;20127;-81
2023/08/08 07:08:55;;;;;;;7.72;3.25;;;;;;;15.14;47.62;101016.25;5062323;28;20067;-82
2023/08/08 07:11:24;;;;;;;6.60;2.50;;;;;;;15.14;47.82;101014.34;5062379;28;20215;-81
2023/08/08 07:13:52;;;;;;;4.95;2.33;;;;;;;15.16;48.19;101019.72;5063785;28;20526;-82
2023/08/08 07:16:20;;;;;;;4.30;2.13;;;;;;;15.17;47.86;101015.06;5045482;28;20040;-82
2023/08/08 07:18:49;;;;;;;3.92;2.33;;;;;;;15.18;48.10;101023.16;5082165;28;20128;-81
2023/08/08 07:21:21;;;;;;;4.18;2.42;;;;;;;15.18;48.23;101016.81;5069857;28;20555;-82
2023/08/08 07:23:50;;;;;;;4.63;2.50;;;;;;;15.21;48.10;101017.31;5069881;28;20071;-81
2023/08/08 07:26:19;;;;;;;4.60;2.47;;;;;;;15.24;48.20;101010.63;5057103;28;20044;-82
2023/08/08 07:28:48;;;;;;;5.50;2.80;;;;;;;15.25;48.59;101016.00;5076573;28;20361;-83
2023/08/08 07:31:16;;;;;;;5.63;2.45;;;;;;;15.28;48.42;101012.03;5075528;28;20044;-82
2023/08/08 07:33:44;;;;;;;4.32;2.35;;;;;;;15.30;48.19;101005.34;5057737;28;20317;-82
2023/08/08 07:36:12;;;;;;;4.88;2.45;;;;;;;15.31;48.22;100990.53;5055876;28;20053;-82
2023/08/08 07:38:40;;;;;;;4.88;2.47;;;;;;;15.35;48.15;101000.22;5067571;28;20560;-82
2023/08/08 07:41:09;;;;;;;5.07;2.40;;;;;;;15.39;48.61;100992.50;5083906;28;20482;-81
2023/08/08 07:43:37;;;;;;;8.15;2.63;;;;;;;15.41;48.39;100999.59;5061633;28;20120;-82
2023/08/08 07:46:05;;;;;;;5.18;2.47;;;;;;;15.46;48.33;100993.56;5057863;28;20056;-81
2023/08/08 07:48:34;;;;;;;5.63;2.72;;;;;;;15.47;48.60;100993.41;5058173;28;20071;-82
2023/08/08 07:51:03;;;;;;;4.75;2.35;;;;;;;15.52;48.13;100993.78;5054276;28;20052;-82
2023/08/08 07:53:31;;;;;;;4.15;2.50;;;;;;;15.57;48.27;101001.59;5054474;28;20048;-83
2023/08/08 07:55:58;;;;;;;4.35;2.47;;;;;;;15.60;48.64;100994.84;5055200;28;20108;-82
2023/08/08 07:58:28;;;;;;;5.28;2.38;;;;;;;15.65;48.54;100998.88;5068172;28;20055;-83
2023/08/08 08:00:56;;;;;;;3.97;2.50;;;;;;;15.67;48.32;101002.31;5052872;28;20087;-83
2023/08/08 08:03:24;;;;;;;5.32;2.53;;;;;;;15.69;48.31;101004.91;5055012;28;20455;-82
2023/08/08 08:05:52;;;;;;;5.93;2.30;;;;;;;15.73;48.25;101007.19;5067896;28;20127;-82
2023/08/08 08:08:21;;;;;;;4.18;2.10;;;;;;;15.77;48.15;101003.06;5056423;28;20484;-83
2023/08/08 08:10:50;;;;;;;4.50;2.55;;;;;;;15.79;48.36;101012.03;5073517;28;20048;-83
2023/08/08 08:13:18;;;;;;;8.82;2.22;;;;;;;15.83;48.40;101007.94;5073271;28;20045;-82
2023/08/08 08:15:48;;;;;;;5.00;2.30;;;;;;;15.89;48.39;101006.41;5074052;28;20051;-83
2023/08/08 08:18:17;;;;;;;7.43;2.35;;;;;;;15.90;47.90;101008.13;5062159;28;20535;-82
2023/08/08 08:20:46;;;;;;;3.97;2.03;;;;;;;15.95;47.72;101002.09;5065740;28;20548;-83
2023/08/08 08:23:14;;;;;;;4.20;2.13;;;;;;;15.98;47.66;101010.06;5056561;28;20059;-83
2023/08/08 08:25:42;;;;;;;5.55;2.33;;;;;;;16.00;47.52;101014.38;5079415;28;20571;-83
2023/08/08 08:28:10;;;;;;;4.85;2.10;;;;;;;16.03;47.82;101011.28;5072301;28;20593;-83
2023/08/08 08:30:39;;;;;;;4.30;2.30;;;;;;;16.05;47.61;100994.56;5074411;28;20490;-83
2023/08/08 08:33:08;;;;;;;4.97;2.00;;;;;;;16.07;48.25;100998.91;5059547;28;20067;-83
2023/08/08 08:35:37;;;;;;;4.30;2.30;;;;;;;16.11;48.43;101008.56;5063604;28;20041;-83
2023/08/08 08:38:06;;;;;;;4.00;2.38;;;;;;;16.15;47.88;101009.97;5070808;28;20052;-84
2023/08/08 08:40:39;;;;;;;5.72;2.13;;;;;;;16.20;47.97;101006.72;5080141;28;20048;-83
2023/08/08 08:43:09;;;;;;;4.93;2.83;;;;;;;16.24;48.06;100997.09;5070703;28;20121;-83
2023/08/08 08:45:40;;;;;;;3.75;2.10;;;;;;;16.26;47.67;101000.53;5052121;28;20522;-83
2023/08/08 08:48:11;;;;;;;4.45;2.45;;;;;;;16.29;47.59;100993.81;5066846;28;20055;-81
2023/08/08 08:50:40;;;;;;;6.10;2.47;;;;;;;16.28;47.66;100995.69;5059299;28;20499;-80
2023/08/08 08:53:10;;;;;;;4.85;2.47;;;;;;;16.35;47.94;100995.88;5055664;28;20128;-83
2023/08/08 08:55:38;;;;;;;5.57;2.63;;;;;;;16.36;47.18;101003.16;5065812;28;20159;-83
2023/08/08 08:58:07;;;;;;;6.25;2.80;;;;;;;16.38;47.18;101001.94;5066957;28;20068;-83
2023/08/08 09:00:36;;;;;;;5.00;2.28;;;;;;;16.41;47.31;101004.38;5064841;28;20163;-84
2023/08/08 09:03:05;;;;;;;4.43;2.80;;;;;;;16.42;47.46;101008.84;5070211;28;20511;-83
2023/08/08 09:05:35;;;;;;;4.95;2.45;;;;;;;16.44;47.44;100998.50;5067450;28;20063;-83
2023/08/08 09:08:03;;;;;;;6.50;2.65;;;;;;;16.43;47.05;101004.19;5068930;28;20044;-83
2023/08/08 09:10:35;;;;;;;4.97;2.75;;;;;;;16.44;47.19;101006.78;5071510;28;20051;-83
2023/08/08 09:13:02;;;;;;;4.38;2.45;;;;;;;16.43;47.13;101006.94;5058268;28;20591;-81
2023/08/08 09:15:32;;;;;;;5.13;2.50;;;;;;;16.44;47.39;101012.31;5057454;28;20102;-83
2023/08/08 09:18:00;;;;;;;5.32;2.50;;;;;;;16.46;46.98;101007.50;5055873;28;20050;-83
2023/08/08 09:20:29;;;;;;;4.20;2.63;;;;;;;16.44;47.20;101004.03;5060392;28;20040;-83
2023/08/08 09:22:59;;;;;;;5.25;2.83;;;;;;;16.45;47.25;100997.47;5061591;28;20049;-81
2023/08/08 09:25:27;;;;;;;4.43;2.28;;;;;;;16.46;47.30;101010.25;5064639;28;20068;-82
2023/08/08 09:27:56;;;;;;;4.60;2.20;;;;;;;16.47;47.15;101000.94;5060902;28;20528;-82
2023/08/08 09:30:24;;;;;;;3.28;2.08;;;;;;;16.48;47.73;101002.66;5062476;28;20043;-83
2023/08/08 09:32:52;;;;;;;5.45;2.30;;;;;;;16.50;47.29;100996.94;5059414;28;20045;-83
2023/08/08 09:35:24;;;;;;;4.07;2.10;;;;;;;16.55;47.70;101000.94;5057617;28;20036;-82
2023/08/08 09:37:54;;;;;;;4.10;2.25;;;;;;;16.57;47.99;101001.66;5062273;28;20040;-83
2023/08/08 09:40:24;;;;;;;5.68;2.80;;;;;;;16.61;47.98;100997.50;5055122;28;20561;-82
2023/08/08 09:42:52;;;;;;;4.55;2.25;;;;;;;16.67;47.95;101006.13;5056252;28;20116;-82
2023/08/08 09:45:22;;;;;;;4.45;2.47;;;;;;;16.72;47.96;101000.97;5071396;28;20044;-83
2023/08/08 09:47:52;;;;;;;4.15;2.20;;;;;;;16.77;47.91;101002.19;5067450;28;20044;-82
2023/08/08 09:50:20;;;;;;;5.50;2.33;;;;;;;16.86;47.61;101001.16;5081913;28;20576;-82
2023/08/08 09:52:48;;;;;;;4.50;2.40;;;;;;;16.91;47.59;101004.25;5052215;28;20148;-82
2023/08/08 09:55:17;;;;;;;4.45;2.45;;;;;;;16.97;47.46;100992.56;5060389;28;20552;-82
2023/08/08 09:57:47;;;;;;;4.13;2.30;;;;;;;17.08;47.22;101007.06;5068059;28;20084;-82
2023/08/08 10:00:16;;;;;;;4.10;2.15;;;;;;;17.13;47.27;101010.19;5062893;28;20137;-82
2023/08/08 10:02:45;;;;;;;5.22;2.00;;;;;;;17.20;47.08;101011.22;5055730;28;20423;-81
2023/08/08 10:05:15;;;;;;;3.35;2.25;;;;;;;17.24;47.08;101007.03;5070581;28;20499;-82
2023/08/08 10:07:44;;;;;;;4.82;2.30;;;;;;;17.28;46.64;101000.13;5073176;28;20522;-82
2023/08/08 10:10:13;;;;;;;4.97;2.22;;;;;;;17.33;46.75;101006.00;5060744;28;20044;-82
2023/08/08 10:12:42;;;;;;;4.88;2.40;;;;;;;17.38;46.19;101006.34;5074321;28;20036;-82
2023/08/08 10:15:12;;;;;;;4.75;2.40;;;;;;;17.41;46.33;101000.44;5069690;28;20041;-82
2023/08/08 10:17:41;;;;;;;4.47;2.50;;;;;;;17.45;46.08;101003.75;5068536;28;20484;-83
2023/08/08 10:20:11;;;;;;;4.47;2.22;;;;;;;17.46;45.81;101000.81;5088247;28;20052;-82
2023/08/08 10:22:44;;;;;;;5.38;2.30;;;;;;;17.50;45.69;100995.75;5089850;28;20040;-82
2023/08/08 10:25:19;;;;;;;4.85;2.35;;;;;;;17.49;45.27;101002.34;5074787;28;20630;-83
2023/08/08 10:27:47;;;;;;;3.75;2.30;;;;;;;17.47;45.82;101004.44;5063432;28;20059;-83
2023/08/08 10:30:17;;;;;;;3.33;2.58;;;;;;;17.49;45.90;101005.09;5068651;28;20045;-84
2023/08/08 10:32:47;;;;;;;3.70;2.45;;;;;;;17.47;45.98;101001.66;5056901;28;20048;-84
2023/08/08 10:35:15;;;;;;;4.45;2.60;;;;;;;17.41;46.16;101008.75;5045453;28;20136;-84
2023/08/08 10:37:54;;;;;;;4.10;2.20;;;;;;;17.37;46.64;101013.78;5064113;28;20052;-84
2023/08/08 10:40:22;;;;;;;4.47;2.60;;;;;;;17.31;46.68;101010.88;5040424;28;20049;-83
2023/08/08 10:42:50;;;;;;;4.93;2.42;;;;;;;17.25;46.58;101009.63;5060602;28;20040;-84
2023/08/08 10:45:19;;;;;;;5.82;2.70;;;;;;;17.22;46.47;101007.25;5072844;28;20066;-84
2023/08/08 10:47:47;;;;;;;4.55;2.22;;;;;;;17.16;46.23;101010.69;5056669;28;20135;-85
2023/08/08 10:50:18;;;;;;;6.22;2.35;;;;;;;17.12;46.19;101014.84;5064947;28;20066;-83
2023/08/08 10:52:55;;;;;;;5.53;2.55;;;;;;;17.08;45.93;101007.06;5049619;28;20044;-83
2023/08/08 10:55:25;;;;;;;3.58;2.33;;;;;;;17.00;46.37;101008.78;5056972;28;20060;-84
2023/08/08 10:57:59;;;;;;;5.57;2.35;;;;;;;16.96;46.71;101009.28;5073374;28;20082;-84
2023/08/08 11:00:31;;;;;;;5.35;2.30;;;;;;;16.92;47.23;101005.13;5051054;28;20094;-84
2023/08/08 11:03:00;;;;;;;4.07;2.55;;;;;;;16.87;46.95;101016.72;5082850;28;20048;-84
2023/08/08 11:05:30;;;;;;;5.28;2.70;;;;;;;16.88;47.17;101012.91;5074072;28;20044;-84
2023/08/08 11:07:59;;;;;;;6.32;2.90;;;;;;;16.87;47.04;101004.78;5076020;28;20583;-84
2023/08/08 11:10:30;;;;;;;4.57;2.80;;;;;;;16.85;47.27;101006.84;5060072;28;20470;-84
2023/08/08 11:13:01;;;;;;;4.35;2.60;;;;;;;16.83;47.18;101004.25;5071150;28;20059;-83
2023/08/08 11:15:33;;;;;;;4.82;2.83;;;;;;;16.86;47.05;101003.91;5071958;28;20515;-84
2023/08/08 11:18:02;;;;;;;4.63;2.50;;;;;;;16.83;47.13;101004.25;5075336;28;20049;-84
2023/08/08 11:20:32;;;;;;;3.67;2.47;;;;;;;16.84;47.17;101003.22;5076702;28;20044;-83
2023/08/08 11:23:01;;;;;;;5.57;2.33;;;;;;;16.86;47.29;101000.28;5093008;28;20063;-83
2023/08/08 11:25:31;;;;;;;3.40;2.40;;;;;;;16.87;47.28;100996.50;5080681;28;20134;-83
2023/08/08 11:27:59;;;;;;;4.72;2.80;;;;;;;16.88;46.80;100995.47;5074132;28;20052;-84
2023/08/08 11:30:35;;;;;;;4.55;2.72;;;;;;;16.90;47.28;100990.63;5065116;28;20085;-84
2023/08/08 11:33:03;;;;;;;3.40;2.10;;;;;;;16.90;47.31;100982.34;5078991;28;20040;-83